El Dorado Airport


Codes: SVED/EOR
Name: El Dorado Airport
City: Bolivar
Country: Venezuela
Elevation: 318 ft.

Photos at El Dorado Airport


   Photos courtesy of SpottingLog. You can add your own sightings and photos by signing up for a free trial today.



No photos found.

Weather at El Dorado Airport


Time (UTC)DescriptionTempratureWindCloud coverageVisibilityPressureHumidity
19-Apr-2024 03:00Moderate Rain23°C2 mph, NE100%1868m1012hPa99%
19-Apr-2024 06:00Moderate Rain23°C2 mph, NE100%3339m1011hPa99%
19-Apr-2024 09:00Light Rain23°C0 mph, SE100%10000m1011hPa99%
19-Apr-2024 12:00Overcast Clouds24°C0 mph, SW100%10000m1013hPa98%
19-Apr-2024 15:00Overcast Clouds28°C2 mph, W100%10000m1013hPa73%
19-Apr-2024 18:00Overcast Clouds31°C4 mph, NW100%10000m1009hPa59%
19-Apr-2024 21:00Light Rain31°C2 mph, NE89%10000m1008hPa55%
20-Apr-2024 00:00Moderate Rain24°C2 mph, NE94%10000m1011hPa98%
20-Apr-2024 03:00Light Rain24°C2 mph, NE94%10000m1013hPa98%
20-Apr-2024 06:00Moderate Rain24°C2 mph, E97%4640m1011hPa99%
20-Apr-2024 09:00Moderate Rain23°C4 mph, SE100%4994m1012hPa99%
20-Apr-2024 12:00Moderate Rain23°C2 mph, E100%6530m1015hPa99%
20-Apr-2024 15:00Light Rain24°C2 mph, SE100%10000m1015hPa97%
20-Apr-2024 18:00Overcast Clouds28°C2 mph, SE100%10000m1011hPa71%
20-Apr-2024 21:00Overcast Clouds26°C4 mph, NE100%10000m1010hPa77%
21-Apr-2024 00:00Overcast Clouds24°C2 mph, NE100%10000m1012hPa90%
21-Apr-2024 03:00Light Rain23°C2 mph, E100%10000m1013hPa96%
21-Apr-2024 06:00Light Rain23°C2 mph, NE100%10000m1012hPa99%
21-Apr-2024 09:00Overcast Clouds22°C2 mph, NE98%10000m1012hPa100%
21-Apr-2024 12:00Overcast Clouds24°C4 mph, E86%10000m1014hPa89%
21-Apr-2024 15:00Broken Clouds32°C4 mph, E53%10000m1013hPa47%
21-Apr-2024 18:00Broken Clouds34°C9 mph, NE60%10000m1009hPa41%
21-Apr-2024 21:00Scattered Clouds31°C7 mph, NE37%10000m1008hPa49%
22-Apr-2024 00:00Few Clouds25°C2 mph, E18%10000m1011hPa72%
22-Apr-2024 03:00Broken Clouds24°C4 mph, NE81%10000m1013hPa77%
22-Apr-2024 06:00Overcast Clouds23°C4 mph, NE86%10000m1011hPa84%
22-Apr-2024 09:00Broken Clouds21°C2 mph, NE57%10000m1012hPa93%
22-Apr-2024 12:00Broken Clouds25°C4 mph, E52%10000m1014hPa70%
22-Apr-2024 15:00Broken Clouds32°C4 mph, E57%10000m1012hPa42%
22-Apr-2024 18:00Scattered Clouds35°C4 mph, NE42%10000m1008hPa32%
22-Apr-2024 21:00Broken Clouds31°C7 mph, NE66%10000m1007hPa48%
23-Apr-2024 00:00Broken Clouds27°C7 mph, NE72%10000m1010hPa69%
23-Apr-2024 03:00Light Rain25°C4 mph, NE100%10000m1012hPa86%
23-Apr-2024 06:00Light Rain23°C2 mph, NE100%10000m1011hPa98%
23-Apr-2024 09:00Light Rain23°C2 mph, NE100%10000m1012hPa98%
23-Apr-2024 12:00Light Rain25°C4 mph, NE92%10000m1013hPa90%
23-Apr-2024 15:00Moderate Rain26°C4 mph, NE97%7142m1013hPa90%
23-Apr-2024 18:00Moderate Rain26°C4 mph, NE98%10000m1011hPa94%
23-Apr-2024 21:00Light Rain26°C4 mph, E98%10000m1010hPa81%
24-Apr-2024 00:00Overcast Clouds24°C2 mph, NE99%10000m1012hPa95%